AGROMETEOROLOŠKI PORTAL
Vinorodna pokrajina

Temelj dobrega kmetovanja.

Pregled podatkov za lokacijo TREBNJE ARSO, meteorološka postaja 148

Pregled senzorjev na lokaciji

ID Ime Zadnja
vrednost
Datum in čas
meritve
(lokalni čas)
Tip
senzorja
4807 Padavine (mm) 0 mm 20.4.2024 18:30 ARSO
4811 Relativna zračna vlaga (2 m) (% RH) 65 % RH 20.4.2024 18:30 ARSO
4810 Temperatura (2 m) (°C) 9,6 °C 20.4.2024 18:30 ARSO

Pregled podatkov zadnjih 24 ur

Zap.
št.
Datum in čas
(lokalni čas)
TREBNJE ARSO
Padavine Relativna
zračna
vlaga
(2
m)
Temperatura
(2
m)
1 20.4.2024 18:30 0 64,7 9,6
2 20.4.2024 18:00 0 57,7 9,5
3 20.4.2024 17:30 0 55 9,8
4 20.4.2024 17:00 0 59,7 9,4
5 20.4.2024 16:30 0 60,3 9,1
6 20.4.2024 16:00 0 58,3 9
7 20.4.2024 15:30 0 57,3 9,7
8 20.4.2024 15:00 0,1 49 11,3
9 20.4.2024 14:30 0,3 45,3 12,8
10 20.4.2024 14:00 0 40,7 13,8
11 20.4.2024 13:30 0 42 13,7
12 20.4.2024 13:00 0 44 13,4
13 20.4.2024 12:30 0 43,3 13,3
14 20.4.2024 12:00 0 40,7 13
15 20.4.2024 11:30 0 49 12,7
16 20.4.2024 11:00 0 56 11,4
17 20.4.2024 10:30 0 61,3 10,2
18 20.4.2024 10:00 0 70,3 8,5
19 20.4.2024 09:30 0 79,3 6,3
20 20.4.2024 09:00 0 83,3 4,9
21 20.4.2024 08:30 0 86,7 3,9
22 20.4.2024 08:00 0 89 2,8
23 20.4.2024 07:30 0 91,3 2,2
24 20.4.2024 07:00 0 91,7 1,8
25 20.4.2024 06:30 0 92 1,5
26 20.4.2024 06:00 0 92 1,3
27 20.4.2024 05:30 0 93 1,2
28 20.4.2024 05:00 0 93 0,9
29 20.4.2024 04:30 0 94 0,8
30 20.4.2024 04:00 0 94 0,6
31 20.4.2024 03:30 0 93,5 0,7
32 20.4.2024 03:00 0 93 1,3
33 20.4.2024 02:30 0 93 1,6
34 20.4.2024 02:00 0 91,7 1,9
35 20.4.2024 01:30 0 91,3 2
36 20.4.2024 01:00 0 88,3 2,4
37 20.4.2024 00:30 0 88,3 2,7
38 20.4.2024 00:00 0 86 3,3
39 19.4.2024 23:30 0 82,7 3,8
40 19.4.2024 23:00 0 81 4,4
41 19.4.2024 22:30 0 76,7 5,3
42 19.4.2024 22:00 0 67,5 6,4
43 19.4.2024 21:30 0 59,3 7,5
44 19.4.2024 21:00 0 55,3 8,4
45 19.4.2024 20:30 0 52 9,5
46 19.4.2024 20:00 0 42,7 10,8